sensor_id;sensor_type;location;lat;lon;timestamp;P1;durP1;ratioP1;P2;durP2;ratioP2
16254;SDS011;8235;52.198;9.904;2023-02-21T00:02:16;27.83;;;16.70;;
16254;SDS011;8235;52.198;9.904;2023-02-21T00:05:00;29.10;;;16.27;;
16254;SDS011;8235;52.198;9.904;2023-02-21T00:07:45;33.57;;;17.23;;
16254;SDS011;8235;52.198;9.904;2023-02-21T00:10:29;29.40;;;17.13;;
16254;SDS011;8235;52.198;9.904;2023-02-21T00:13:13;33.93;;;17.00;;
16254;SDS011;8235;52.198;9.904;2023-02-21T00:15:57;34.87;;;19.20;;
16254;SDS011;8235;52.198;9.904;2023-02-21T00:18:41;35.93;;;19.70;;
16254;SDS011;8235;52.198;9.904;2023-02-21T00:21:26;35.50;;;19.57;;
16254;SDS011;8235;52.198;9.904;2023-02-21T00:24:12;33.43;;;18.73;;
16254;SDS011;8235;52.198;9.904;2023-02-21T00:26:57;31.07;;;18.33;;
16254;SDS011;8235;52.198;9.904;2023-02-21T00:29:41;34.30;;;17.43;;
16254;SDS011;8235;52.198;9.904;2023-02-21T00:32:25;31.33;;;18.00;;
16254;SDS011;8235;52.198;9.904;2023-02-21T00:35:10;27.77;;;15.93;;
16254;SDS011;8235;52.198;9.904;2023-02-21T00:37:53;29.30;;;16.47;;
16254;SDS011;8235;52.198;9.904;2023-02-21T00:40:39;26.87;;;15.30;;
16254;SDS011;8235;52.198;9.904;2023-02-21T00:43:26;27.97;;;15.47;;
16254;SDS011;8235;52.198;9.904;2023-02-21T00:46:11;26.43;;;14.93;;
16254;SDS011;8235;52.198;9.904;2023-02-21T00:48:55;27.13;;;14.83;;
16254;SDS011;8235;52.198;9.904;2023-02-21T00:51:39;26.53;;;14.73;;
16254;SDS011;8235;52.198;9.904;2023-02-21T00:54:23;27.20;;;15.87;;
16254;SDS011;8235;52.198;9.904;2023-02-21T00:57:08;30.83;;;17.37;;
16254;SDS011;8235;52.198;9.904;2023-02-21T00:59:52;29.83;;;17.20;;
16254;SDS011;8235;52.198;9.904;2023-02-21T01:02:36;30.77;;;17.47;;
16254;SDS011;8235;52.198;9.904;2023-02-21T01:05:20;32.17;;;17.80;;
16254;SDS011;8235;52.198;9.904;2023-02-21T01:08:04;38.50;;;19.70;;
16254;SDS011;8235;52.198;9.904;2023-02-21T01:10:48;35.90;;;18.47;;
16254;SDS011;8235;52.198;9.904;2023-02-21T01:13:33;35.80;;;19.53;;
16254;SDS011;8235;52.198;9.904;2023-02-21T01:16:17;41.00;;;20.20;;
16254;SDS011;8235;52.198;9.904;2023-02-21T01:19:01;43.93;;;21.67;;
16254;SDS011;8235;52.198;9.904;2023-02-21T01:21:45;38.40;;;20.43;;
16254;SDS011;8235;52.198;9.904;2023-02-21T01:24:29;38.00;;;20.43;;
16254;SDS011;8235;52.198;9.904;2023-02-21T01:27:13;42.00;;;22.27;;
16254;SDS011;8235;52.198;9.904;2023-02-21T01:29:59;40.33;;;22.33;;
16254;SDS011;8235;52.198;9.904;2023-02-21T01:32:43;39.67;;;20.60;;
16254;SDS011;8235;52.198;9.904;2023-02-21T01:35:26;40.37;;;21.13;;
16254;SDS011;8235;52.198;9.904;2023-02-21T01:38:10;37.23;;;19.63;;
16254;SDS011;8235;52.198;9.904;2023-02-21T01:40:54;33.53;;;19.27;;
16254;SDS011;8235;52.198;9.904;2023-02-21T01:43:54;31.70;;;18.73;;
16254;SDS011;8235;52.198;9.904;2023-02-21T01:46:41;33.63;;;17.70;;
16254;SDS011;8235;52.198;9.904;2023-02-21T01:49:25;27.90;;;16.40;;
16254;SDS011;8235;52.198;9.904;2023-02-21T01:52:09;26.70;;;15.47;;
16254;SDS011;8235;52.198;9.904;2023-02-21T01:54:53;24.03;;;14.93;;
16254;SDS011;8235;52.198;9.904;2023-02-21T01:57:39;23.60;;;14.77;;
16254;SDS011;8235;52.198;9.904;2023-02-21T02:00:23;23.00;;;13.67;;
16254;SDS011;8235;52.198;9.904;2023-02-21T02:03:10;24.67;;;13.97;;
16254;SDS011;8235;52.198;9.904;2023-02-21T02:05:58;21.00;;;13.53;;
16254;SDS011;8235;52.198;9.904;2023-02-21T02:08:45;25.67;;;15.10;;
16254;SDS011;8235;52.198;9.904;2023-02-21T02:11:35;25.60;;;15.30;;
16254;SDS011;8235;52.198;9.904;2023-02-21T02:14:34;32.83;;;17.50;;
16254;SDS011;8235;52.198;9.904;2023-02-21T02:17:20;33.20;;;19.47;;
16254;SDS011;8235;52.198;9.904;2023-02-21T02:23:08;35.20;;;20.07;;
16254;SDS011;8235;52.198;9.904;2023-02-21T02:26:07;39.97;;;21.20;;
16254;SDS011;8235;52.198;9.904;2023-02-21T02:28:57;42.03;;;21.50;;
16254;SDS011;8235;52.198;9.904;2023-02-21T02:31:37;36.50;;;20.37;;
16254;SDS011;8235;52.198;9.904;2023-02-21T02:34:41;38.97;;;22.37;;
16254;SDS011;8235;52.198;9.904;2023-02-21T02:37:16;34.30;;;18.83;;
16254;SDS011;8235;52.198;9.904;2023-02-21T02:39:47;31.77;;;18.87;;
16254;SDS011;8235;52.198;9.904;2023-02-21T02:42:24;33.87;;;19.73;;
16254;SDS011;8235;52.198;9.904;2023-02-21T02:45:02;33.87;;;18.83;;
16254;SDS011;8235;52.198;9.904;2023-02-21T02:47:35;29.27;;;17.10;;
16254;SDS011;8235;52.198;9.904;2023-02-21T02:50:05;33.93;;;18.73;;
16254;SDS011;8235;52.198;9.904;2023-02-21T02:52:36;29.33;;;16.50;;
16254;SDS011;8235;52.198;9.904;2023-02-21T02:55:03;31.17;;;17.13;;
16254;SDS011;8235;52.198;9.904;2023-02-21T02:57:45;28.60;;;17.20;;
16254;SDS011;8235;52.198;9.904;2023-02-21T03:00:13;26.37;;;16.00;;
16254;SDS011;8235;52.198;9.904;2023-02-21T03:02:44;30.17;;;17.70;;
16254;SDS011;8235;52.198;9.904;2023-02-21T03:05:28;31.30;;;17.47;;
16254;SDS011;8235;52.198;9.904;2023-02-21T03:08:07;30.37;;;17.13;;
16254;SDS011;8235;52.198;9.904;2023-02-21T03:10:43;24.83;;;14.83;;
16254;SDS011;8235;52.198;9.904;2023-02-21T03:13:15;30.83;;;17.90;;
16254;SDS011;8235;52.198;9.904;2023-02-21T03:15:47;31.93;;;17.80;;
16254;SDS011;8235;52.198;9.904;2023-02-21T03:18:17;32.17;;;17.27;;
16254;SDS011;8235;52.198;9.904;2023-02-21T03:20:52;33.80;;;17.87;;
16254;SDS011;8235;52.198;9.904;2023-02-21T03:23:22;33.20;;;18.20;;
16254;SDS011;8235;52.198;9.904;2023-02-21T03:25:51;33.80;;;18.10;;
16254;SDS011;8235;52.198;9.904;2023-02-21T03:28:19;33.93;;;18.23;;
16254;SDS011;8235;52.198;9.904;2023-02-21T03:30:47;32.73;;;18.17;;
16254;SDS011;8235;52.198;9.904;2023-02-21T03:33:17;32.67;;;18.33;;
16254;SDS011;8235;52.198;9.904;2023-02-21T03:35:43;34.77;;;18.63;;
16254;SDS011;8235;52.198;9.904;2023-02-21T03:38:11;32.10;;;17.17;;
16254;SDS011;8235;52.198;9.904;2023-02-21T03:40:38;34.23;;;18.47;;
16254;SDS011;8235;52.198;9.904;2023-02-21T03:43:04;30.90;;;15.90;;
16254;SDS011;8235;52.198;9.904;2023-02-21T03:45:31;33.70;;;18.20;;
16254;SDS011;8235;52.198;9.904;2023-02-21T03:47:58;32.67;;;18.27;;
16254;SDS011;8235;52.198;9.904;2023-02-21T03:50:25;31.17;;;18.03;;
16254;SDS011;8235;52.198;9.904;2023-02-21T03:52:51;28.40;;;16.27;;
16254;SDS011;8235;52.198;9.904;2023-02-21T03:55:19;32.23;;;18.37;;
16254;SDS011;8235;52.198;9.904;2023-02-21T03:57:46;32.90;;;17.50;;
16254;SDS011;8235;52.198;9.904;2023-02-21T04:00:13;33.70;;;18.60;;
16254;SDS011;8235;52.198;9.904;2023-02-21T04:02:39;36.83;;;18.57;;
16254;SDS011;8235;52.198;9.904;2023-02-21T04:05:06;39.33;;;20.17;;
16254;SDS011;8235;52.198;9.904;2023-02-21T04:07:33;41.30;;;19.70;;
16254;SDS011;8235;52.198;9.904;2023-02-21T04:09:59;41.53;;;19.73;;
16254;SDS011;8235;52.198;9.904;2023-02-21T04:12:27;37.37;;;19.77;;
16254;SDS011;8235;52.198;9.904;2023-02-21T04:14:53;33.23;;;19.30;;
16254;SDS011;8235;52.198;9.904;2023-02-21T04:17:22;40.17;;;20.47;;
16254;SDS011;8235;52.198;9.904;2023-02-21T04:19:49;41.53;;;20.97;;
16254;SDS011;8235;52.198;9.904;2023-02-21T04:22:15;37.87;;;21.00;;
16254;SDS011;8235;52.198;9.904;2023-02-21T04:24:42;38.87;;;20.30;;
16254;SDS011;8235;52.198;9.904;2023-02-21T04:27:08;36.37;;;20.37;;
16254;SDS011;8235;52.198;9.904;2023-02-21T04:29:36;42.30;;;21.77;;
16254;SDS011;8235;52.198;9.904;2023-02-21T04:32:03;42.07;;;21.07;;
16254;SDS011;8235;52.198;9.904;2023-02-21T04:34:29;42.40;;;21.80;;
16254;SDS011;8235;52.198;9.904;2023-02-21T04:36:56;45.67;;;22.67;;
16254;SDS011;8235;52.198;9.904;2023-02-21T04:39:22;46.33;;;22.57;;
16254;SDS011;8235;52.198;9.904;2023-02-21T04:41:49;52.13;;;24.17;;
16254;SDS011;8235;52.198;9.904;2023-02-21T04:44:15;48.27;;;23.97;;
16254;SDS011;8235;52.198;9.904;2023-02-21T04:46:43;46.73;;;25.77;;
16254;SDS011;8235;52.198;9.904;2023-02-21T04:49:10;46.33;;;23.60;;
16254;SDS011;8235;52.198;9.904;2023-02-21T04:51:37;48.30;;;22.87;;
16254;SDS011;8235;52.198;9.904;2023-02-21T04:54:04;47.27;;;23.07;;
16254;SDS011;8235;52.198;9.904;2023-02-21T04:56:31;47.43;;;23.90;;
16254;SDS011;8235;52.198;9.904;2023-02-21T04:58:58;45.23;;;22.60;;
16254;SDS011;8235;52.198;9.904;2023-02-21T05:01:25;52.07;;;24.90;;
16254;SDS011;8235;52.198;9.904;2023-02-21T05:03:54;50.80;;;25.60;;
16254;SDS011;8235;52.198;9.904;2023-02-21T05:06:22;52.73;;;23.00;;
16254;SDS011;8235;52.198;9.904;2023-02-21T05:08:49;44.23;;;23.07;;
16254;SDS011;8235;52.198;9.904;2023-02-21T05:11:16;50.70;;;24.90;;
16254;SDS011;8235;52.198;9.904;2023-02-21T05:13:44;46.17;;;23.90;;
16254;SDS011;8235;52.198;9.904;2023-02-21T05:16:11;43.77;;;22.37;;
16254;SDS011;8235;52.198;9.904;2023-02-21T05:18:40;45.90;;;23.07;;
16254;SDS011;8235;52.198;9.904;2023-02-21T05:21:08;48.20;;;23.67;;
16254;SDS011;8235;52.198;9.904;2023-02-21T05:23:35;42.53;;;23.20;;
16254;SDS011;8235;52.198;9.904;2023-02-21T05:26:04;43.27;;;23.23;;
16254;SDS011;8235;52.198;9.904;2023-02-21T05:28:34;44.13;;;22.23;;
16254;SDS011;8235;52.198;9.904;2023-02-21T05:31:00;39.50;;;21.60;;
16254;SDS011;8235;52.198;9.904;2023-02-21T05:33:27;40.30;;;21.53;;
16254;SDS011;8235;52.198;9.904;2023-02-21T05:35:55;40.57;;;19.97;;
16254;SDS011;8235;52.198;9.904;2023-02-21T05:38:23;42.90;;;22.00;;
16254;SDS011;8235;52.198;9.904;2023-02-21T05:40:51;39.30;;;20.27;;
16254;SDS011;8235;52.198;9.904;2023-02-21T05:43:18;39.73;;;19.80;;
16254;SDS011;8235;52.198;9.904;2023-02-21T05:45:45;35.57;;;19.67;;
16254;SDS011;8235;52.198;9.904;2023-02-21T05:48:11;37.87;;;18.70;;
16254;SDS011;8235;52.198;9.904;2023-02-21T05:50:38;34.10;;;17.00;;
16254;SDS011;8235;52.198;9.904;2023-02-21T05:53:05;32.73;;;18.33;;
16254;SDS011;8235;52.198;9.904;2023-02-21T05:55:35;30.87;;;17.40;;
16254;SDS011;8235;52.198;9.904;2023-02-21T05:58:01;30.47;;;16.93;;
16254;SDS011;8235;52.198;9.904;2023-02-21T06:00:28;29.80;;;16.77;;
16254;SDS011;8235;52.198;9.904;2023-02-21T06:02:55;30.53;;;17.10;;
16254;SDS011;8235;52.198;9.904;2023-02-21T06:05:22;32.40;;;17.13;;
16254;SDS011;8235;52.198;9.904;2023-02-21T06:07:49;31.43;;;17.07;;
16254;SDS011;8235;52.198;9.904;2023-02-21T06:10:16;31.73;;;16.87;;
16254;SDS011;8235;52.198;9.904;2023-02-21T06:12:44;30.23;;;17.10;;
16254;SDS011;8235;52.198;9.904;2023-02-21T06:15:11;29.87;;;16.07;;
16254;SDS011;8235;52.198;9.904;2023-02-21T06:17:38;33.33;;;16.37;;
16254;SDS011;8235;52.198;9.904;2023-02-21T06:20:05;30.00;;;16.30;;
16254;SDS011;8235;52.198;9.904;2023-02-21T06:22:33;30.07;;;15.47;;
16254;SDS011;8235;52.198;9.904;2023-02-21T06:24:59;30.00;;;16.20;;
16254;SDS011;8235;52.198;9.904;2023-02-21T06:27:25;32.00;;;16.37;;
16254;SDS011;8235;52.198;9.904;2023-02-21T06:29:53;32.13;;;16.73;;
16254;SDS011;8235;52.198;9.904;2023-02-21T06:32:20;25.90;;;15.00;;
16254;SDS011;8235;52.198;9.904;2023-02-21T06:34:46;28.30;;;15.67;;
16254;SDS011;8235;52.198;9.904;2023-02-21T06:37:12;29.40;;;16.23;;
16254;SDS011;8235;52.198;9.904;2023-02-21T06:39:39;31.40;;;15.93;;
16254;SDS011;8235;52.198;9.904;2023-02-21T06:42:05;29.73;;;15.47;;
16254;SDS011;8235;52.198;9.904;2023-02-21T06:44:32;26.07;;;14.73;;
16254;SDS011;8235;52.198;9.904;2023-02-21T06:47:00;30.57;;;15.47;;
16254;SDS011;8235;52.198;9.904;2023-02-21T06:49:26;31.93;;;16.73;;
16254;SDS011;8235;52.198;9.904;2023-02-21T06:51:53;27.00;;;15.07;;
16254;SDS011;8235;52.198;9.904;2023-02-21T06:54:19;30.03;;;15.57;;
16254;SDS011;8235;52.198;9.904;2023-02-21T06:56:45;32.73;;;16.43;;
16254;SDS011;8235;52.198;9.904;2023-02-21T06:59:12;28.97;;;14.67;;
16254;SDS011;8235;52.198;9.904;2023-02-21T07:01:38;23.83;;;14.07;;
16254;SDS011;8235;52.198;9.904;2023-02-21T07:04:06;27.83;;;14.50;;
16254;SDS011;8235;52.198;9.904;2023-02-21T07:06:33;27.97;;;14.53;;
16254;SDS011;8235;52.198;9.904;2023-02-21T07:08:59;27.17;;;14.07;;
16254;SDS011;8235;52.198;9.904;2023-02-21T07:11:25;24.87;;;14.07;;
16254;SDS011;8235;52.198;9.904;2023-02-21T07:13:53;28.00;;;15.67;;
16254;SDS011;8235;52.198;9.904;2023-02-21T07:16:21;26.30;;;13.13;;
16254;SDS011;8235;52.198;9.904;2023-02-21T07:18:47;26.93;;;14.53;;
16254;SDS011;8235;52.198;9.904;2023-02-21T07:21:16;25.70;;;14.70;;
16254;SDS011;8235;52.198;9.904;2023-02-21T07:23:45;26.30;;;14.97;;
16254;SDS011;8235;52.198;9.904;2023-02-21T07:26:12;26.00;;;14.77;;
16254;SDS011;8235;52.198;9.904;2023-02-21T07:28:39;26.03;;;15.23;;
16254;SDS011;8235;52.198;9.904;2023-02-21T07:31:07;32.70;;;15.67;;
16254;SDS011;8235;52.198;9.904;2023-02-21T07:33:34;25.93;;;14.67;;
16254;SDS011;8235;52.198;9.904;2023-02-21T07:36:01;27.17;;;15.27;;
16254;SDS011;8235;52.198;9.904;2023-02-21T07:38:29;29.20;;;15.73;;
16254;SDS011;8235;52.198;9.904;2023-02-21T07:40:57;32.30;;;16.27;;
16254;SDS011;8235;52.198;9.904;2023-02-21T07:43:26;26.57;;;16.37;;
16254;SDS011;8235;52.198;9.904;2023-02-21T07:45:54;34.33;;;18.10;;
16254;SDS011;8235;52.198;9.904;2023-02-21T07:48:20;31.40;;;16.43;;
16254;SDS011;8235;52.198;9.904;2023-02-21T07:50:47;34.20;;;18.13;;
16254;SDS011;8235;52.198;9.904;2023-02-21T07:53:14;33.50;;;17.17;;
16254;SDS011;8235;52.198;9.904;2023-02-21T07:55:42;34.67;;;17.37;;
16254;SDS011;8235;52.198;9.904;2023-02-21T07:58:09;39.10;;;20.40;;
16254;SDS011;8235;52.198;9.904;2023-02-21T08:00:35;39.30;;;18.63;;
16254;SDS011;8235;52.198;9.904;2023-02-21T08:03:02;34.30;;;18.73;;
16254;SDS011;8235;52.198;9.904;2023-02-21T08:05:28;35.40;;;19.80;;
16254;SDS011;8235;52.198;9.904;2023-02-21T08:07:55;39.17;;;19.43;;
16254;SDS011;8235;52.198;9.904;2023-02-21T08:10:22;38.83;;;20.40;;
16254;SDS011;8235;52.198;9.904;2023-02-21T08:12:51;40.40;;;19.87;;
16254;SDS011;8235;52.198;9.904;2023-02-21T08:15:18;39.07;;;20.07;;
16254;SDS011;8235;52.198;9.904;2023-02-21T08:17:46;33.20;;;17.93;;
16254;SDS011;8235;52.198;9.904;2023-02-21T08:20:13;38.97;;;19.13;;
16254;SDS011;8235;52.198;9.904;2023-02-21T08:22:39;36.67;;;19.80;;
16254;SDS011;8235;52.198;9.904;2023-02-21T08:25:06;37.07;;;19.40;;
16254;SDS011;8235;52.198;9.904;2023-02-21T08:27:32;37.27;;;18.93;;
16254;SDS011;8235;52.198;9.904;2023-02-21T08:30:00;31.00;;;16.83;;
16254;SDS011;8235;52.198;9.904;2023-02-21T08:32:27;32.87;;;17.43;;
16254;SDS011;8235;52.198;9.904;2023-02-21T08:34:53;31.53;;;17.07;;
16254;SDS011;8235;52.198;9.904;2023-02-21T08:37:20;35.13;;;17.77;;
16254;SDS011;8235;52.198;9.904;2023-02-21T08:39:46;31.27;;;16.90;;
16254;SDS011;8235;52.198;9.904;2023-02-21T08:42:13;27.33;;;15.80;;
16254;SDS011;8235;52.198;9.904;2023-02-21T08:44:42;32.00;;;16.37;;
16254;SDS011;8235;52.198;9.904;2023-02-21T08:47:10;28.53;;;14.37;;
16254;SDS011;8235;52.198;9.904;2023-02-21T08:49:37;29.90;;;15.30;;
16254;SDS011;8235;52.198;9.904;2023-02-21T08:52:05;30.53;;;16.30;;
16254;SDS011;8235;52.198;9.904;2023-02-21T08:54:32;27.90;;;15.10;;
16254;SDS011;8235;52.198;9.904;2023-02-21T08:56:59;24.10;;;14.00;;
16254;SDS011;8235;52.198;9.904;2023-02-21T08:59:25;32.73;;;16.57;;
16254;SDS011;8235;52.198;9.904;2023-02-21T09:01:54;30.23;;;15.77;;
16254;SDS011;8235;52.198;9.904;2023-02-21T09:04:22;29.70;;;16.10;;
16254;SDS011;8235;52.198;9.904;2023-02-21T09:06:49;26.23;;;14.70;;
16254;SDS011;8235;52.198;9.904;2023-02-21T09:09:16;27.20;;;14.67;;
16254;SDS011;8235;52.198;9.904;2023-02-21T09:11:42;29.57;;;15.80;;
16254;SDS011;8235;52.198;9.904;2023-02-21T09:14:12;28.63;;;14.77;;
16254;SDS011;8235;52.198;9.904;2023-02-21T09:16:39;28.63;;;14.53;;
16254;SDS011;8235;52.198;9.904;2023-02-21T09:19:06;27.13;;;14.50;;
16254;SDS011;8235;52.198;9.904;2023-02-21T09:21:35;25.43;;;14.70;;
16254;SDS011;8235;52.198;9.904;2023-02-21T09:24:09;22.20;;;13.43;;
16254;SDS011;8235;52.198;9.904;2023-02-21T09:26:36;26.27;;;13.73;;
16254;SDS011;8235;52.198;9.904;2023-02-21T09:29:02;24.20;;;13.53;;
16254;SDS011;8235;52.198;9.904;2023-02-21T09:31:29;22.60;;;13.73;;
16254;SDS011;8235;52.198;9.904;2023-02-21T09:33:55;23.60;;;13.17;;
16254;SDS011;8235;52.198;9.904;2023-02-21T09:36:22;27.00;;;15.00;;
16254;SDS011;8235;52.198;9.904;2023-02-21T09:38:50;25.27;;;13.90;;
16254;SDS011;8235;52.198;9.904;2023-02-21T09:41:17;26.23;;;14.67;;
16254;SDS011;8235;52.198;9.904;2023-02-21T09:43:45;29.70;;;15.37;;
16254;SDS011;8235;52.198;9.904;2023-02-21T09:46:15;28.30;;;17.03;;
16254;SDS011;8235;52.198;9.904;2023-02-21T09:48:44;33.37;;;16.67;;
16254;SDS011;8235;52.198;9.904;2023-02-21T09:51:10;34.53;;;17.80;;
16254;SDS011;8235;52.198;9.904;2023-02-21T09:53:39;31.73;;;16.80;;
16254;SDS011;8235;52.198;9.904;2023-02-21T09:56:12;36.97;;;18.03;;
16254;SDS011;8235;52.198;9.904;2023-02-21T09:58:46;29.53;;;16.03;;
16254;SDS011;8235;52.198;9.904;2023-02-21T10:01:18;32.47;;;18.43;;
16254;SDS011;8235;52.198;9.904;2023-02-21T10:03:52;31.13;;;16.90;;
16254;SDS011;8235;52.198;9.904;2023-02-21T10:06:31;30.57;;;16.83;;
16254;SDS011;8235;52.198;9.904;2023-02-21T10:09:05;28.40;;;14.47;;
16254;SDS011;8235;52.198;9.904;2023-02-21T10:11:46;29.53;;;16.73;;
16254;SDS011;8235;52.198;9.904;2023-02-21T10:14:25;28.73;;;15.70;;
16254;SDS011;8235;52.198;9.904;2023-02-21T10:16:58;30.73;;;16.37;;
16254;SDS011;8235;52.198;9.904;2023-02-21T10:19:30;29.13;;;16.23;;
16254;SDS011;8235;52.198;9.904;2023-02-21T10:22:01;29.23;;;15.03;;
16254;SDS011;8235;52.198;9.904;2023-02-21T10:24:36;31.63;;;14.83;;
16254;SDS011;8235;52.198;9.904;2023-02-21T10:27:04;24.00;;;14.47;;
16254;SDS011;8235;52.198;9.904;2023-02-21T10:29:36;28.03;;;14.87;;
16254;SDS011;8235;52.198;9.904;2023-02-21T10:32:08;28.00;;;14.93;;
16254;SDS011;8235;52.198;9.904;2023-02-21T10:34:35;25.00;;;13.30;;
16254;SDS011;8235;52.198;9.904;2023-02-21T10:37:02;26.67;;;14.57;;
16254;SDS011;8235;52.198;9.904;2023-02-21T10:39:38;22.17;;;14.17;;
16254;SDS011;8235;52.198;9.904;2023-02-21T10:42:11;22.50;;;13.20;;
16254;SDS011;8235;52.198;9.904;2023-02-21T10:44:43;23.73;;;14.10;;
16254;SDS011;8235;52.198;9.904;2023-02-21T10:47:13;19.67;;;13.33;;
16254;SDS011;8235;52.198;9.904;2023-02-21T10:49:45;24.90;;;14.10;;
16254;SDS011;8235;52.198;9.904;2023-02-21T10:52:15;25.00;;;14.23;;
16254;SDS011;8235;52.198;9.904;2023-02-21T10:54:58;23.00;;;13.23;;
16254;SDS011;8235;52.198;9.904;2023-02-21T10:57:27;22.30;;;13.27;;
16254;SDS011;8235;52.198;9.904;2023-02-21T10:59:56;27.53;;;15.87;;
16254;SDS011;8235;52.198;9.904;2023-02-21T11:02:27;25.70;;;15.47;;
16254;SDS011;8235;52.198;9.904;2023-02-21T11:05:05;21.83;;;13.37;;
16254;SDS011;8235;52.198;9.904;2023-02-21T11:07:34;21.17;;;13.00;;
16254;SDS011;8235;52.198;9.904;2023-02-21T11:10:01;20.90;;;13.03;;
16254;SDS011;8235;52.198;9.904;2023-02-21T11:12:52;18.40;;;12.17;;
16254;SDS011;8235;52.198;9.904;2023-02-21T11:15:26;19.60;;;11.87;;
16254;SDS011;8235;52.198;9.904;2023-02-21T11:18:01;19.83;;;11.50;;
16254;SDS011;8235;52.198;9.904;2023-02-21T11:20:30;19.40;;;12.47;;
16254;SDS011;8235;52.198;9.904;2023-02-21T11:22:56;18.97;;;12.40;;
16254;SDS011;8235;52.198;9.904;2023-02-21T11:25:24;20.57;;;12.87;;
16254;SDS011;8235;52.198;9.904;2023-02-21T11:28:04;20.83;;;12.70;;
16254;SDS011;8235;52.198;9.904;2023-02-21T11:30:33;19.53;;;12.40;;
16254;SDS011;8235;52.198;9.904;2023-02-21T11:33:01;16.47;;;11.03;;
16254;SDS011;8235;52.198;9.904;2023-02-21T11:35:31;20.50;;;11.83;;
16254;SDS011;8235;52.198;9.904;2023-02-21T11:38:00;14.27;;;10.07;;
16254;SDS011;8235;52.198;9.904;2023-02-21T11:40:31;17.03;;;11.73;;
16254;SDS011;8235;52.198;9.904;2023-02-21T11:43:21;20.00;;;11.87;;
16254;SDS011;8235;52.198;9.904;2023-02-21T11:48:46;13.73;;;9.57;;
16254;SDS011;8235;52.198;9.904;2023-02-21T11:51:31;14.23;;;9.53;;
16254;SDS011;8235;52.198;9.904;2023-02-21T11:54:03;13.30;;;9.33;;
16254;SDS011;8235;52.198;9.904;2023-02-21T11:56:33;14.07;;;9.67;;
16254;SDS011;8235;52.198;9.904;2023-02-21T11:59:11;14.53;;;9.73;;
16254;SDS011;8235;52.198;9.904;2023-02-21T12:01:52;14.00;;;9.50;;
16254;SDS011;8235;52.198;9.904;2023-02-21T12:04:39;13.50;;;10.13;;
16254;SDS011;8235;52.198;9.904;2023-02-21T12:07:19;14.63;;;10.37;;
16254;SDS011;8235;52.198;9.904;2023-02-21T12:09:55;13.20;;;10.27;;
16254;SDS011;8235;52.198;9.904;2023-02-21T12:12:31;11.97;;;9.00;;
16254;SDS011;8235;52.198;9.904;2023-02-21T12:15:12;13.80;;;9.20;;
16254;SDS011;8235;52.198;9.904;2023-02-21T12:21:01;15.67;;;9.40;;
16254;SDS011;8235;52.198;9.904;2023-02-21T12:23:34;11.50;;;8.90;;
16254;SDS011;8235;52.198;9.904;2023-02-21T12:26:15;13.53;;;9.63;;
16254;SDS011;8235;52.198;9.904;2023-02-21T12:28:56;13.20;;;9.47;;
16254;SDS011;8235;52.198;9.904;2023-02-21T12:31:32;11.23;;;8.90;;
16254;SDS011;8235;52.198;9.904;2023-02-21T12:34:16;11.00;;;9.03;;
16254;SDS011;8235;52.198;9.904;2023-02-21T12:36:56;12.13;;;8.67;;
16254;SDS011;8235;52.198;9.904;2023-02-21T12:39:35;12.27;;;8.67;;
16254;SDS011;8235;52.198;9.904;2023-02-21T12:42:19;10.67;;;8.10;;
16254;SDS011;8235;52.198;9.904;2023-02-21T12:45:01;11.07;;;8.43;;
16254;SDS011;8235;52.198;9.904;2023-02-21T12:47:41;11.53;;;8.40;;
16254;SDS011;8235;52.198;9.904;2023-02-21T12:50:12;11.27;;;7.97;;
16254;SDS011;8235;52.198;9.904;2023-02-21T12:52:43;11.97;;;8.93;;
16254;SDS011;8235;52.198;9.904;2023-02-21T12:55:22;9.77;;;7.83;;
16254;SDS011;8235;52.198;9.904;2023-02-21T12:57:52;11.77;;;8.07;;
16254;SDS011;8235;52.198;9.904;2023-02-21T13:00:22;11.80;;;8.63;;
16254;SDS011;8235;52.198;9.904;2023-02-21T13:02:55;11.70;;;8.13;;
16254;SDS011;8235;52.198;9.904;2023-02-21T13:05:33;12.10;;;8.47;;
16254;SDS011;8235;52.198;9.904;2023-02-21T13:08:05;11.90;;;8.07;;
16254;SDS011;8235;52.198;9.904;2023-02-21T13:10:38;11.13;;;7.93;;
16254;SDS011;8235;52.198;9.904;2023-02-21T13:13:14;10.27;;;6.90;;
16254;SDS011;8235;52.198;9.904;2023-02-21T13:15:46;10.60;;;8.00;;
16254;SDS011;8235;52.198;9.904;2023-02-21T13:18:17;11.53;;;8.37;;
16254;SDS011;8235;52.198;9.904;2023-02-21T13:20:47;9.80;;;7.87;;
16254;SDS011;8235;52.198;9.904;2023-02-21T13:23:40;12.00;;;8.10;;
16254;SDS011;8235;52.198;9.904;2023-02-21T13:26:34;11.63;;;8.73;;
16254;SDS011;8235;52.198;9.904;2023-02-21T13:29:23;10.47;;;8.03;;
16254;SDS011;8235;52.198;9.904;2023-02-21T13:31:56;10.90;;;8.27;;
16254;SDS011;8235;52.198;9.904;2023-02-21T13:34:27;10.97;;;8.10;;
16254;SDS011;8235;52.198;9.904;2023-02-21T13:37:00;10.73;;;8.03;;
16254;SDS011;8235;52.198;9.904;2023-02-21T13:39:30;10.33;;;8.10;;
16254;SDS011;8235;52.198;9.904;2023-02-21T13:42:03;12.63;;;8.53;;
16254;SDS011;8235;52.198;9.904;2023-02-21T13:44:33;10.10;;;8.40;;
16254;SDS011;8235;52.198;9.904;2023-02-21T13:47:06;10.90;;;8.47;;
16254;SDS011;8235;52.198;9.904;2023-02-21T13:49:40;11.30;;;8.50;;
16254;SDS011;8235;52.198;9.904;2023-02-21T13:55:20;14.60;;;9.30;;
16254;SDS011;8235;52.198;9.904;2023-02-21T13:58:05;13.27;;;9.63;;
16254;SDS011;8235;52.198;9.904;2023-02-21T14:01:18;11.47;;;8.67;;
16254;SDS011;8235;52.198;9.904;2023-02-21T14:07:03;14.03;;;9.20;;
16254;SDS011;8235;52.198;9.904;2023-02-21T14:09:29;13.47;;;9.60;;
16254;SDS011;8235;52.198;9.904;2023-02-21T14:12:01;14.80;;;10.00;;
16254;SDS011;8235;52.198;9.904;2023-02-21T14:14:30;12.63;;;9.37;;
16254;SDS011;8235;52.198;9.904;2023-02-21T14:17:01;12.93;;;9.57;;
16254;SDS011;8235;52.198;9.904;2023-02-21T14:19:30;13.93;;;9.40;;
16254;SDS011;8235;52.198;9.904;2023-02-21T14:22:01;15.03;;;10.47;;
16254;SDS011;8235;52.198;9.904;2023-02-21T14:24:35;14.10;;;10.20;;
16254;SDS011;8235;52.198;9.904;2023-02-21T14:27:04;16.57;;;10.77;;
16254;SDS011;8235;52.198;9.904;2023-02-21T14:30:21;11.83;;;9.00;;
16254;SDS011;8235;52.198;9.904;2023-02-21T14:32:57;13.83;;;9.90;;
16254;SDS011;8235;52.198;9.904;2023-02-21T14:35:34;15.53;;;9.93;;
16254;SDS011;8235;52.198;9.904;2023-02-21T14:38:14;14.53;;;10.47;;
16254;SDS011;8235;52.198;9.904;2023-02-21T14:40:45;15.10;;;11.03;;
16254;SDS011;8235;52.198;9.904;2023-02-21T14:43:26;16.87;;;11.17;;
16254;SDS011;8235;52.198;9.904;2023-02-21T14:46:05;15.37;;;10.30;;
16254;SDS011;8235;52.198;9.904;2023-02-21T14:48:53;19.57;;;13.63;;
16254;SDS011;8235;52.198;9.904;2023-02-21T14:54:52;18.20;;;12.47;;
16254;SDS011;8235;52.198;9.904;2023-02-21T14:57:48;16.63;;;12.17;;
16254;SDS011;8235;52.198;9.904;2023-02-21T15:00:28;20.37;;;12.33;;
16254;SDS011;8235;52.198;9.904;2023-02-21T15:03:08;17.47;;;11.53;;
16254;SDS011;8235;52.198;9.904;2023-02-21T15:05:41;17.20;;;12.23;;
16254;SDS011;8235;52.198;9.904;2023-02-21T15:08:19;17.97;;;11.60;;
16254;SDS011;8235;52.198;9.904;2023-02-21T15:10:48;18.37;;;11.70;;
16254;SDS011;8235;52.198;9.904;2023-02-21T15:13:19;18.37;;;11.77;;
16254;SDS011;8235;52.198;9.904;2023-02-21T15:15:49;18.47;;;11.73;;
16254;SDS011;8235;52.198;9.904;2023-02-21T15:18:22;17.83;;;11.63;;
16254;SDS011;8235;52.198;9.904;2023-02-21T15:21:02;19.13;;;12.70;;
16254;SDS011;8235;52.198;9.904;2023-02-21T15:23:30;18.20;;;11.90;;
16254;SDS011;8235;52.198;9.904;2023-02-21T15:25:59;18.97;;;11.73;;
16254;SDS011;8235;52.198;9.904;2023-02-21T15:28:28;16.80;;;10.97;;
16254;SDS011;8235;52.198;9.904;2023-02-21T15:30:56;18.13;;;12.27;;